sensor_id;sensor_type;location;lat;lon;timestamp;P1;durP1;ratioP1;P2;durP2;ratioP2
30948;SDS011;17637;51.984;21.208;2022-12-15T00:02:26;68.63;;;39.00;;
30948;SDS011;17637;51.984;21.208;2022-12-15T00:05:17;74.82;;;39.25;;
30948;SDS011;17637;51.984;21.208;2022-12-15T00:25:15;82.68;;;45.17;;
30948;SDS011;17637;51.984;21.208;2022-12-15T00:28:06;78.18;;;41.53;;
30948;SDS011;17637;51.984;21.208;2022-12-15T00:30:58;70.47;;;40.38;;
30948;SDS011;17637;51.984;21.208;2022-12-15T00:33:49;74.55;;;41.05;;
30948;SDS011;17637;51.984;21.208;2022-12-15T00:39:30;77.18;;;43.00;;
30948;SDS011;17637;51.984;21.208;2022-12-15T00:42:02;73.07;;;41.03;;
30948;SDS011;17637;51.984;21.208;2022-12-15T00:44:34;83.07;;;43.78;;
30948;SDS011;17637;51.984;21.208;2022-12-15T00:47:07;75.03;;;42.28;;
30948;SDS011;17637;51.984;21.208;2022-12-15T00:49:40;85.95;;;49.22;;
30948;SDS011;17637;51.984;21.208;2022-12-15T00:55:21;73.25;;;40.65;;
30948;SDS011;17637;51.984;21.208;2022-12-15T00:58:11;62.20;;;34.38;;
30948;SDS011;17637;51.984;21.208;2022-12-15T01:01:05;70.85;;;38.70;;
30948;SDS011;17637;51.984;21.208;2022-12-15T01:03:59;65.13;;;35.35;;
30948;SDS011;17637;51.984;21.208;2022-12-15T01:09:40;71.43;;;40.92;;
30948;SDS011;17637;51.984;21.208;2022-12-15T01:15:21;63.35;;;35.65;;
30948;SDS011;17637;51.984;21.208;2022-12-15T01:18:12;61.78;;;34.72;;
30948;SDS011;17637;51.984;21.208;2022-12-15T01:24:29;63.13;;;36.75;;
30948;SDS011;17637;51.984;21.208;2022-12-15T01:27:01;62.03;;;35.33;;
30948;SDS011;17637;51.984;21.208;2022-12-15T01:29:33;71.05;;;40.92;;
30948;SDS011;17637;51.984;21.208;2022-12-15T01:32:05;65.43;;;36.72;;
30948;SDS011;17637;51.984;21.208;2022-12-15T01:34:37;66.60;;;38.05;;
30948;SDS011;17637;51.984;21.208;2022-12-15T01:37:09;68.53;;;38.55;;
30948;SDS011;17637;51.984;21.208;2022-12-15T01:39:41;67.07;;;38.03;;
30948;SDS011;17637;51.984;21.208;2022-12-15T01:47:59;61.90;;;34.63;;
30948;SDS011;17637;51.984;21.208;2022-12-15T01:50:39;61.70;;;35.25;;
30948;SDS011;17637;51.984;21.208;2022-12-15T01:53:15;67.05;;;35.08;;
30948;SDS011;17637;51.984;21.208;2022-12-15T01:55:48;59.55;;;34.15;;
30948;SDS011;17637;51.984;21.208;2022-12-15T01:58:21;63.38;;;34.70;;
30948;SDS011;17637;51.984;21.208;2022-12-15T02:00:53;62.42;;;33.42;;
30948;SDS011;17637;51.984;21.208;2022-12-15T02:03:26;62.42;;;34.17;;
30948;SDS011;17637;51.984;21.208;2022-12-15T02:05:59;68.35;;;36.35;;
30948;SDS011;17637;51.984;21.208;2022-12-15T02:08:32;69.93;;;38.10;;
30948;SDS011;17637;51.984;21.208;2022-12-15T02:16:28;67.43;;;36.25;;
30948;SDS011;17637;51.984;21.208;2022-12-15T02:19:44;76.85;;;40.08;;
30948;SDS011;17637;51.984;21.208;2022-12-15T02:31:52;73.18;;;38.58;;
30948;SDS011;17637;51.984;21.208;2022-12-15T02:34:33;66.57;;;35.90;;
30948;SDS011;17637;51.984;21.208;2022-12-15T02:37:13;72.40;;;39.47;;
30948;SDS011;17637;51.984;21.208;2022-12-15T02:39:51;83.80;;;42.45;;
30948;SDS011;17637;51.984;21.208;2022-12-15T02:42:23;85.25;;;40.70;;
30948;SDS011;17637;51.984;21.208;2022-12-15T02:44:59;86.22;;;42.65;;
30948;SDS011;17637;51.984;21.208;2022-12-15T02:50:47;83.80;;;42.25;;
30948;SDS011;17637;51.984;21.208;2022-12-15T03:00:19;83.82;;;42.78;;
30948;SDS011;17637;51.984;21.208;2022-12-15T03:02:46;75.47;;;40.75;;
30948;SDS011;17637;51.984;21.208;2022-12-15T03:05:22;81.85;;;43.03;;
30948;SDS011;17637;51.984;21.208;2022-12-15T03:07:55;81.55;;;43.40;;
30948;SDS011;17637;51.984;21.208;2022-12-15T03:10:27;82.22;;;41.45;;
30948;SDS011;17637;51.984;21.208;2022-12-15T03:13:00;85.65;;;43.30;;
30948;SDS011;17637;51.984;21.208;2022-12-15T03:15:32;78.72;;;40.95;;
30948;SDS011;17637;51.984;21.208;2022-12-15T03:18:06;81.13;;;41.83;;
30948;SDS011;17637;51.984;21.208;2022-12-15T03:20:38;78.95;;;42.70;;
30948;SDS011;17637;51.984;21.208;2022-12-15T03:23:10;84.65;;;44.25;;
30948;SDS011;17637;51.984;21.208;2022-12-15T03:25:45;68.68;;;38.22;;
30948;SDS011;17637;51.984;21.208;2022-12-15T03:28:20;75.70;;;42.15;;
30948;SDS011;17637;51.984;21.208;2022-12-15T03:30:52;73.28;;;41.63;;
30948;SDS011;17637;51.984;21.208;2022-12-15T03:33:24;77.43;;;42.47;;
30948;SDS011;17637;51.984;21.208;2022-12-15T03:35:56;78.63;;;42.40;;
30948;SDS011;17637;51.984;21.208;2022-12-15T03:38:28;74.32;;;41.33;;
30948;SDS011;17637;51.984;21.208;2022-12-15T03:41:00;78.05;;;41.85;;
30948;SDS011;17637;51.984;21.208;2022-12-15T03:43:32;77.45;;;41.17;;
30948;SDS011;17637;51.984;21.208;2022-12-15T03:46:05;78.25;;;43.90;;
30948;SDS011;17637;51.984;21.208;2022-12-15T03:48:37;80.80;;;45.50;;
30948;SDS011;17637;51.984;21.208;2022-12-15T03:51:09;71.40;;;41.88;;
30948;SDS011;17637;51.984;21.208;2022-12-15T03:53:41;76.20;;;44.25;;
30948;SDS011;17637;51.984;21.208;2022-12-15T03:56:13;77.03;;;43.38;;
30948;SDS011;17637;51.984;21.208;2022-12-15T03:58:46;79.88;;;44.13;;
30948;SDS011;17637;51.984;21.208;2022-12-15T04:03:56;76.03;;;43.55;;
30948;SDS011;17637;51.984;21.208;2022-12-15T04:06:31;76.03;;;42.72;;
30948;SDS011;17637;51.984;21.208;2022-12-15T04:09:03;73.28;;;42.92;;
30948;SDS011;17637;51.984;21.208;2022-12-15T04:11:35;83.72;;;44.05;;
30948;SDS011;17637;51.984;21.208;2022-12-15T04:14:08;76.38;;;41.63;;
30948;SDS011;17637;51.984;21.208;2022-12-15T04:16:40;71.25;;;39.63;;
30948;SDS011;17637;51.984;21.208;2022-12-15T04:19:12;77.15;;;43.00;;
30948;SDS011;17637;51.984;21.208;2022-12-15T04:22:02;77.43;;;42.90;;
30948;SDS011;17637;51.984;21.208;2022-12-15T04:24:34;76.15;;;43.15;;
30948;SDS011;17637;51.984;21.208;2022-12-15T04:27:25;84.03;;;44.35;;
30948;SDS011;17637;51.984;21.208;2022-12-15T04:33:06;83.80;;;44.20;;
30948;SDS011;17637;51.984;21.208;2022-12-15T04:36:01;86.47;;;47.40;;
30948;SDS011;17637;51.984;21.208;2022-12-15T04:38:52;90.40;;;48.17;;
30948;SDS011;17637;51.984;21.208;2022-12-15T04:44:33;76.35;;;41.92;;
30948;SDS011;17637;51.984;21.208;2022-12-15T04:47:24;106.10;;;61.60;;
30948;SDS011;17637;51.984;21.208;2022-12-15T04:50:15;88.65;;;50.85;;
30948;SDS011;17637;51.984;21.208;2022-12-15T04:55:58;85.35;;;45.47;;
30948;SDS011;17637;51.984;21.208;2022-12-15T04:58:49;104.43;;;53.47;;
30948;SDS011;17637;51.984;21.208;2022-12-15T05:01:41;122.53;;;64.45;;
30948;SDS011;17637;51.984;21.208;2022-12-15T05:04:33;120.60;;;63.33;;
30948;SDS011;17637;51.984;21.208;2022-12-15T05:07:24;92.63;;;52.22;;
30948;SDS011;17637;51.984;21.208;2022-12-15T05:10:15;92.68;;;50.42;;
30948;SDS011;17637;51.984;21.208;2022-12-15T05:15:56;90.40;;;48.72;;
30948;SDS011;17637;51.984;21.208;2022-12-15T05:21:37;88.95;;;46.38;;
30948;SDS011;17637;51.984;21.208;2022-12-15T05:27:18;92.38;;;54.03;;
30948;SDS011;17637;51.984;21.208;2022-12-15T05:30:09;94.13;;;50.80;;
30948;SDS011;17637;51.984;21.208;2022-12-15T05:35:36;89.00;;;48.40;;
30948;SDS011;17637;51.984;21.208;2022-12-15T05:38:07;93.13;;;50.90;;
30948;SDS011;17637;51.984;21.208;2022-12-15T05:40:41;96.40;;;56.10;;
30948;SDS011;17637;51.984;21.208;2022-12-15T05:43:13;86.80;;;48.20;;
30948;SDS011;17637;51.984;21.208;2022-12-15T05:45:45;86.75;;;46.80;;
30948;SDS011;17637;51.984;21.208;2022-12-15T05:48:17;100.40;;;51.10;;
30948;SDS011;17637;51.984;21.208;2022-12-15T05:50:50;132.75;;;64.15;;
30948;SDS011;17637;51.984;21.208;2022-12-15T05:53:22;90.53;;;49.50;;
30948;SDS011;17637;51.984;21.208;2022-12-15T05:55:59;90.93;;;50.30;;
30948;SDS011;17637;51.984;21.208;2022-12-15T05:58:36;97.15;;;53.58;;
30948;SDS011;17637;51.984;21.208;2022-12-15T06:01:16;102.13;;;56.92;;
30948;SDS011;17637;51.984;21.208;2022-12-15T06:03:49;96.45;;;51.95;;
30948;SDS011;17637;51.984;21.208;2022-12-15T06:06:21;98.68;;;56.80;;
30948;SDS011;17637;51.984;21.208;2022-12-15T06:08:53;110.82;;;60.80;;
30948;SDS011;17637;51.984;21.208;2022-12-15T06:11:27;101.05;;;52.85;;
30948;SDS011;17637;51.984;21.208;2022-12-15T06:13:59;106.82;;;60.33;;
30948;SDS011;17637;51.984;21.208;2022-12-15T06:16:31;97.05;;;52.10;;
30948;SDS011;17637;51.984;21.208;2022-12-15T06:19:03;101.03;;;58.38;;
30948;SDS011;17637;51.984;21.208;2022-12-15T06:21:35;108.28;;;58.38;;
30948;SDS011;17637;51.984;21.208;2022-12-15T06:24:08;118.43;;;66.53;;
30948;SDS011;17637;51.984;21.208;2022-12-15T06:26:40;111.95;;;61.22;;
30948;SDS011;17637;51.984;21.208;2022-12-15T06:29:12;104.15;;;56.88;;
30948;SDS011;17637;51.984;21.208;2022-12-15T06:31:45;104.32;;;56.42;;
30948;SDS011;17637;51.984;21.208;2022-12-15T06:34:17;93.47;;;51.72;;
30948;SDS011;17637;51.984;21.208;2022-12-15T06:36:49;103.90;;;56.22;;
30948;SDS011;17637;51.984;21.208;2022-12-15T06:39:21;88.88;;;47.72;;
30948;SDS011;17637;51.984;21.208;2022-12-15T06:41:53;100.22;;;54.60;;
30948;SDS011;17637;51.984;21.208;2022-12-15T06:44:25;98.38;;;56.80;;
30948;SDS011;17637;51.984;21.208;2022-12-15T06:46:57;95.97;;;52.08;;
30948;SDS011;17637;51.984;21.208;2022-12-15T06:49:30;100.70;;;56.50;;
30948;SDS011;17637;51.984;21.208;2022-12-15T06:52:02;92.97;;;51.78;;
30948;SDS011;17637;51.984;21.208;2022-12-15T06:54:34;89.20;;;50.85;;
30948;SDS011;17637;51.984;21.208;2022-12-15T06:57:08;128.52;;;66.47;;
30948;SDS011;17637;51.984;21.208;2022-12-15T06:59:40;94.07;;;53.22;;
30948;SDS011;17637;51.984;21.208;2022-12-15T07:02:15;92.75;;;51.97;;
30948;SDS011;17637;51.984;21.208;2022-12-15T07:04:53;112.13;;;58.63;;
30948;SDS011;17637;51.984;21.208;2022-12-15T07:07:26;107.70;;;55.78;;
30948;SDS011;17637;51.984;21.208;2022-12-15T07:09:58;91.20;;;51.22;;
30948;SDS011;17637;51.984;21.208;2022-12-15T07:12:30;108.93;;;58.97;;
30948;SDS011;17637;51.984;21.208;2022-12-15T07:15:02;108.95;;;57.13;;
30948;SDS011;17637;51.984;21.208;2022-12-15T07:17:35;165.77;;;81.60;;
30948;SDS011;17637;51.984;21.208;2022-12-15T07:20:09;127.88;;;65.28;;
30948;SDS011;17637;51.984;21.208;2022-12-15T07:22:42;129.65;;;71.03;;
30948;SDS011;17637;51.984;21.208;2022-12-15T07:25:14;99.57;;;55.90;;
30948;SDS011;17637;51.984;21.208;2022-12-15T07:27:46;91.82;;;51.70;;
30948;SDS011;17637;51.984;21.208;2022-12-15T07:30:19;83.60;;;49.28;;
30948;SDS011;17637;51.984;21.208;2022-12-15T07:32:51;83.40;;;47.22;;
30948;SDS011;17637;51.984;21.208;2022-12-15T07:35:23;85.25;;;47.80;;
30948;SDS011;17637;51.984;21.208;2022-12-15T07:37:55;84.13;;;47.05;;
30948;SDS011;17637;51.984;21.208;2022-12-15T07:40:27;84.47;;;46.63;;
30948;SDS011;17637;51.984;21.208;2022-12-15T07:43:00;87.03;;;49.78;;
30948;SDS011;17637;51.984;21.208;2022-12-15T07:45:32;128.70;;;64.68;;
30948;SDS011;17637;51.984;21.208;2022-12-15T07:48:04;106.65;;;55.45;;
30948;SDS011;17637;51.984;21.208;2022-12-15T07:50:37;96.47;;;52.95;;
30948;SDS011;17637;51.984;21.208;2022-12-15T07:53:11;110.75;;;61.83;;
30948;SDS011;17637;51.984;21.208;2022-12-15T07:55:43;115.82;;;63.00;;
30948;SDS011;17637;51.984;21.208;2022-12-15T07:58:35;104.38;;;55.00;;
30948;SDS011;17637;51.984;21.208;2022-12-15T08:01:09;107.43;;;58.13;;
30948;SDS011;17637;51.984;21.208;2022-12-15T08:03:42;108.35;;;60.20;;
30948;SDS011;17637;51.984;21.208;2022-12-15T08:06:15;119.00;;;61.42;;
30948;SDS011;17637;51.984;21.208;2022-12-15T08:08:48;125.97;;;66.10;;
30948;SDS011;17637;51.984;21.208;2022-12-15T08:11:21;117.85;;;61.58;;
30948;SDS011;17637;51.984;21.208;2022-12-15T08:13:55;130.95;;;67.93;;
30948;SDS011;17637;51.984;21.208;2022-12-15T08:16:40;119.25;;;63.63;;
30948;SDS011;17637;51.984;21.208;2022-12-15T08:19:12;131.82;;;69.15;;
30948;SDS011;17637;51.984;21.208;2022-12-15T08:21:46;111.45;;;61.90;;
30948;SDS011;17637;51.984;21.208;2022-12-15T08:24:19;116.00;;;64.55;;
30948;SDS011;17637;51.984;21.208;2022-12-15T08:26:51;115.70;;;61.97;;
30948;SDS011;17637;51.984;21.208;2022-12-15T08:29:23;112.75;;;63.13;;
30948;SDS011;17637;51.984;21.208;2022-12-15T08:32:15;107.78;;;60.70;;
30948;SDS011;17637;51.984;21.208;2022-12-15T08:34:47;105.82;;;58.35;;
30948;SDS011;17637;51.984;21.208;2022-12-15T08:37:20;111.20;;;60.42;;
30948;SDS011;17637;51.984;21.208;2022-12-15T08:39:52;96.35;;;55.22;;
30948;SDS011;17637;51.984;21.208;2022-12-15T08:42:24;102.57;;;57.33;;
30948;SDS011;17637;51.984;21.208;2022-12-15T08:44:56;97.28;;;53.65;;
30948;SDS011;17637;51.984;21.208;2022-12-15T08:47:28;94.57;;;51.90;;
30948;SDS011;17637;51.984;21.208;2022-12-15T08:50:00;97.45;;;53.42;;
30948;SDS011;17637;51.984;21.208;2022-12-15T08:52:32;104.25;;;58.92;;
30948;SDS011;17637;51.984;21.208;2022-12-15T08:55:05;100.05;;;55.65;;
30948;SDS011;17637;51.984;21.208;2022-12-15T08:57:39;99.75;;;57.65;;
30948;SDS011;17637;51.984;21.208;2022-12-15T09:00:11;109.38;;;63.30;;
30948;SDS011;17637;51.984;21.208;2022-12-15T09:02:43;98.43;;;55.95;;
30948;SDS011;17637;51.984;21.208;2022-12-15T09:05:15;97.72;;;53.33;;
30948;SDS011;17637;51.984;21.208;2022-12-15T09:07:48;103.05;;;57.90;;
30948;SDS011;17637;51.984;21.208;2022-12-15T09:10:26;124.55;;;68.45;;
30948;SDS011;17637;51.984;21.208;2022-12-15T09:12:57;139.48;;;76.70;;
30948;SDS011;17637;51.984;21.208;2022-12-15T09:15:29;130.57;;;71.18;;
30948;SDS011;17637;51.984;21.208;2022-12-15T09:18:21;97.65;;;56.95;;
30948;SDS011;17637;51.984;21.208;2022-12-15T09:20:54;93.07;;;56.00;;
30948;SDS011;17637;51.984;21.208;2022-12-15T09:23:26;101.22;;;55.53;;
30948;SDS011;17637;51.984;21.208;2022-12-15T09:25:59;98.22;;;57.10;;
30948;SDS011;17637;51.984;21.208;2022-12-15T09:28:36;99.68;;;56.40;;
30948;SDS011;17637;51.984;21.208;2022-12-15T09:31:10;80.53;;;46.67;;
30948;SDS011;17637;51.984;21.208;2022-12-15T09:33:44;85.68;;;50.75;;
30948;SDS011;17637;51.984;21.208;2022-12-15T09:36:16;95.70;;;56.00;;
30948;SDS011;17637;51.984;21.208;2022-12-15T09:38:50;85.82;;;53.30;;
30948;SDS011;17637;51.984;21.208;2022-12-15T09:41:24;94.07;;;56.22;;
30948;SDS011;17637;51.984;21.208;2022-12-15T09:44:12;93.07;;;53.13;;
30948;SDS011;17637;51.984;21.208;2022-12-15T09:49:53;98.68;;;58.97;;
30948;SDS011;17637;51.984;21.208;2022-12-15T09:52:27;88.05;;;52.92;;
30948;SDS011;17637;51.984;21.208;2022-12-15T09:55:16;95.38;;;54.72;;
30948;SDS011;17637;51.984;21.208;2022-12-15T09:57:54;93.57;;;55.58;;
30948;SDS011;17637;51.984;21.208;2022-12-15T10:00:36;84.10;;;49.70;;
30948;SDS011;17637;51.984;21.208;2022-12-15T10:08:53;89.70;;;53.05;;
30948;SDS011;17637;51.984;21.208;2022-12-15T10:11:50;80.95;;;49.47;;
30948;SDS011;17637;51.984;21.208;2022-12-15T10:14:33;88.00;;;50.97;;
30948;SDS011;17637;51.984;21.208;2022-12-15T10:22:36;82.22;;;48.92;;
30948;SDS011;17637;51.984;21.208;2022-12-15T10:25:18;79.38;;;47.55;;
30948;SDS011;17637;51.984;21.208;2022-12-15T10:33:36;82.32;;;48.10;;
30948;SDS011;17637;51.984;21.208;2022-12-15T10:36:13;89.88;;;54.53;;
30948;SDS011;17637;51.984;21.208;2022-12-15T10:38:46;95.18;;;55.53;;
30948;SDS011;17637;51.984;21.208;2022-12-15T10:41:21;103.32;;;59.85;;
30948;SDS011;17637;51.984;21.208;2022-12-15T10:43:56;97.00;;;59.72;;
30948;SDS011;17637;51.984;21.208;2022-12-15T10:46:30;95.20;;;56.83;;
30948;SDS011;17637;51.984;21.208;2022-12-15T10:51:41;95.70;;;56.25;;
30948;SDS011;17637;51.984;21.208;2022-12-15T10:54:15;120.18;;;71.43;;
30948;SDS011;17637;51.984;21.208;2022-12-15T10:56:53;119.25;;;72.00;;
30948;SDS011;17637;51.984;21.208;2022-12-15T10:59:28;134.60;;;77.63;;
30948;SDS011;17637;51.984;21.208;2022-12-15T11:05:08;104.53;;;61.88;;
30948;SDS011;17637;51.984;21.208;2022-12-15T11:07:51;96.20;;;54.97;;
30948;SDS011;17637;51.984;21.208;2022-12-15T11:10:29;97.53;;;56.08;;
30948;SDS011;17637;51.984;21.208;2022-12-15T11:13:21;101.13;;;58.50;;
30948;SDS011;17637;51.984;21.208;2022-12-15T11:15:54;92.38;;;51.50;;
30948;SDS011;17637;51.984;21.208;2022-12-15T11:21:25;96.63;;;55.92;;
30948;SDS011;17637;51.984;21.208;2022-12-15T11:27:10;94.68;;;51.50;;
30948;SDS011;17637;51.984;21.208;2022-12-15T11:30:09;97.85;;;54.53;;
30948;SDS011;17637;51.984;21.208;2022-12-15T11:32:45;101.60;;;56.92;;
30948;SDS011;17637;51.984;21.208;2022-12-15T11:35:57;101.05;;;56.58;;
30948;SDS011;17637;51.984;21.208;2022-12-15T11:38:48;103.82;;;57.67;;
30948;SDS011;17637;51.984;21.208;2022-12-15T11:41:37;95.70;;;54.30;;
30948;SDS011;17637;51.984;21.208;2022-12-15T11:47:06;89.97;;;50.20;;
30948;SDS011;17637;51.984;21.208;2022-12-15T11:52:57;89.85;;;48.97;;
30948;SDS011;17637;51.984;21.208;2022-12-15T12:06:30;96.53;;;52.70;;
30948;SDS011;17637;51.984;21.208;2022-12-15T12:17:48;101.80;;;57.10;;
30948;SDS011;17637;51.984;21.208;2022-12-15T12:23:53;105.75;;;57.55;;
30948;SDS011;17637;51.984;21.208;2022-12-15T12:26:31;101.47;;;54.58;;
30948;SDS011;17637;51.984;21.208;2022-12-15T12:32:03;108.82;;;56.42;;
30948;SDS011;17637;51.984;21.208;2022-12-15T12:37:50;104.43;;;55.35;;
30948;SDS011;17637;51.984;21.208;2022-12-15T12:40:36;109.88;;;58.38;;
30948;SDS011;17637;51.984;21.208;2022-12-15T12:43:17;112.85;;;59.63;;
30948;SDS011;17637;51.984;21.208;2022-12-15T12:48:47;112.30;;;57.00;;
30948;SDS011;17637;51.984;21.208;2022-12-15T12:51:30;116.35;;;58.00;;
30948;SDS011;17637;51.984;21.208;2022-12-15T12:54:55;112.18;;;57.60;;
30948;SDS011;17637;51.984;21.208;2022-12-15T12:59:43;111.63;;;57.95;;
30948;SDS011;17637;51.984;21.208;2022-12-15T13:07:53;105.75;;;56.65;;
30948;SDS011;17637;51.984;21.208;2022-12-15T13:10:28;113.82;;;62.90;;
30948;SDS011;17637;51.984;21.208;2022-12-15T13:16:08;109.28;;;57.25;;
30948;SDS011;17637;51.984;21.208;2022-12-15T13:18:59;114.88;;;61.88;;
30948;SDS011;17637;51.984;21.208;2022-12-15T13:24:33;129.57;;;63.72;;
30948;SDS011;17637;51.984;21.208;2022-12-15T13:27:20;123.95;;;64.65;;
30948;SDS011;17637;51.984;21.208;2022-12-15T13:29:57;151.70;;;71.18;;
30948;SDS011;17637;51.984;21.208;2022-12-15T13:32:36;128.35;;;65.35;;
30948;SDS011;17637;51.984;21.208;2022-12-15T13:46:00;104.93;;;55.47;;
30948;SDS011;17637;51.984;21.208;2022-12-15T13:48:35;116.40;;;58.83;;
30948;SDS011;17637;51.984;21.208;2022-12-15T13:51:32;116.70;;;61.47;;
30948;SDS011;17637;51.984;21.208;2022-12-15T13:59:24;137.90;;;72.95;;
30948;SDS011;17637;51.984;21.208;2022-12-15T14:02:22;109.63;;;58.10;;
30948;SDS011;17637;51.984;21.208;2022-12-15T14:05:08;111.65;;;59.55;;
30948;SDS011;17637;51.984;21.208;2022-12-15T14:07:49;175.88;;;98.35;;
30948;SDS011;17637;51.984;21.208;2022-12-15T14:13:27;118.75;;;65.95;;
30948;SDS011;17637;51.984;21.208;2022-12-15T14:19:03;152.88;;;86.03;;
30948;SDS011;17637;51.984;21.208;2022-12-15T14:21:49;119.20;;;65.72;;
30948;SDS011;17637;51.984;21.208;2022-12-15T14:27:22;116.70;;;62.45;;
30948;SDS011;17637;51.984;21.208;2022-12-15T14:32:57;110.68;;;58.70;;
30948;SDS011;17637;51.984;21.208;2022-12-15T14:35:34;104.13;;;55.47;;
30948;SDS011;17637;51.984;21.208;2022-12-15T14:38:11;98.75;;;53.20;;
30948;SDS011;17637;51.984;21.208;2022-12-15T14:40:47;93.35;;;47.72;;
30948;SDS011;17637;51.984;21.208;2022-12-15T14:43:30;107.25;;;57.60;;
30948;SDS011;17637;51.984;21.208;2022-12-15T14:46:16;122.68;;;68.18;;
30948;SDS011;17637;51.984;21.208;2022-12-15T14:48:54;101.13;;;54.45;;
30948;SDS011;17637;51.984;21.208;2022-12-15T14:51:36;101.38;;;56.38;;
30948;SDS011;17637;51.984;21.208;2022-12-15T14:54:25;104.30;;;55.92;;
30948;SDS011;17637;51.984;21.208;2022-12-15T14:57:00;97.90;;;53.03;;
30948;SDS011;17637;51.984;21.208;2022-12-15T14:59:33;96.90;;;51.35;;
30948;SDS011;17637;51.984;21.208;2022-12-15T15:05:02;99.00;;;51.85;;
30948;SDS011;17637;51.984;21.208;2022-12-15T15:07:38;98.05;;;50.35;;
30948;SDS011;17637;51.984;21.208;2022-12-15T15:10:21;91.43;;;46.22;;
30948;SDS011;17637;51.984;21.208;2022-12-15T15:12:55;98.43;;;51.92;;
30948;SDS011;17637;51.984;21.208;2022-12-15T15:15:27;101.50;;;53.25;;
30948;SDS011;17637;51.984;21.208;2022-12-15T15:18:00;91.05;;;49.28;;
30948;SDS011;17637;51.984;21.208;2022-12-15T15:20:32;99.20;;;51.92;;
30948;SDS011;17637;51.984;21.208;2022-12-15T15:23:15;97.28;;;51.33;;
30948;SDS011;17637;51.984;21.208;2022-12-15T15:25:50;102.28;;;52.72;;
30948;SDS011;17637;51.984;21.208;2022-12-15T15:28:27;104.70;;;52.72;;
30948;SDS011;17637;51.984;21.208;2022-12-15T15:34:12;122.63;;;64.47;;
30948;SDS011;17637;51.984;21.208;2022-12-15T15:36:44;112.40;;;58.85;;
30948;SDS011;17637;51.984;21.208;2022-12-15T15:39:16;386.80;;;153.70;;
30948;SDS011;17637;51.984;21.208;2022-12-15T15:41:50;387.90;;;153.60;;
30948;SDS011;17637;51.984;21.208;2022-12-15T15:44:22;203.15;;;84.88;;
30948;SDS011;17637;51.984;21.208;2022-12-15T15:46:54;247.43;;;103.45;;
30948;SDS011;17637;51.984;21.208;2022-12-15T15:49:26;144.27;;;65.55;;
30948;SDS011;17637;51.984;21.208;2022-12-15T15:51:58;200.57;;;88.13;;
30948;SDS011;17637;51.984;21.208;2022-12-15T15:54:32;144.23;;;73.10;;
30948;SDS011;17637;51.984;21.208;2022-12-15T15:57:15;122.30;;;61.13;;
30948;SDS011;17637;51.984;21.208;2022-12-15T15:59:48;115.45;;;59.47;;
30948;SDS011;17637;51.984;21.208;2022-12-15T16:02:20;124.15;;;65.80;;
30948;SDS011;17637;51.984;21.208;2022-12-15T16:04:53;126.43;;;64.70;;
30948;SDS011;17637;51.984;21.208;2022-12-15T16:07:26;124.88;;;66.65;;
30948;SDS011;17637;51.984;21.208;2022-12-15T16:09:59;116.57;;;61.35;;
30948;SDS011;17637;51.984;21.208;2022-12-15T16:12:41;136.07;;;68.13;;
30948;SDS011;17637;51.984;21.208;2022-12-15T16:15:18;132.85;;;68.07;;
30948;SDS011;17637;51.984;21.208;2022-12-15T16:17:53;132.90;;;64.15;;
30948;SDS011;17637;51.984;21.208;2022-12-15T16:20:27;132.00;;;63.03;;
30948;SDS011;17637;51.984;21.208;2022-12-15T16:23:01;135.35;;;67.45;;
30948;SDS011;17637;51.984;21.208;2022-12-15T16:25:37;138.93;;;68.65;;
30948;SDS011;17637;51.984;21.208;2022-12-15T16:28:22;131.77;;;66.72;;
30948;SDS011;17637;51.984;21.208;2022-12-15T16:30:56;112.50;;;57.25;;
30948;SDS011;17637;51.984;21.208;2022-12-15T16:33:29;123.15;;;61.45;;
30948;SDS011;17637;51.984;21.208;2022-12-15T16:36:01;161.25;;;74.47;;
30948;SDS011;17637;51.984;21.208;2022-12-15T16:38:33;171.10;;;80.60;;
30948;SDS011;17637;51.984;21.208;2022-12-15T16:41:07;182.18;;;88.22;;
30948;SDS011;17637;51.984;21.208;2022-12-15T16:43:45;160.52;;;79.45;;
30948;SDS011;17637;51.984;21.208;2022-12-15T16:46:18;159.32;;;79.47;;
30948;SDS011;17637;51.984;21.208;2022-12-15T16:48:51;148.15;;;72.28;;
30948;SDS011;17637;51.984;21.208;2022-12-15T16:51:36;142.65;;;72.13;;
30948;SDS011;17637;51.984;21.208;2022-12-15T16:54:23;148.88;;;72.82;;
30948;SDS011;17637;51.984;21.208;2022-12-15T16:56:57;135.35;;;66.75;;
30948;SDS011;17637;51.984;21.208;2022-12-15T16:59:30;147.77;;;73.40;;
30948;SDS011;17637;51.984;21.208;2022-12-15T17:02:21;154.88;;;75.05;;
30948;SDS011;17637;51.984;21.208;2022-12-15T17:04:57;163.57;;;79.25;;
30948;SDS011;17637;51.984;21.208;2022-12-15T17:07:29;170.10;;;82.18;;
30948;SDS011;17637;51.984;21.208;2022-12-15T17:10:02;157.02;;;77.85;;
30948;SDS011;17637;51.984;21.208;2022-12-15T17:12:35;160.00;;;79.97;;
30948;SDS011;17637;51.984;21.208;2022-12-15T17:15:14;285.65;;;135.85;;
30948;SDS011;17637;51.984;21.208;2022-12-15T17:18:09;254.40;;;121.28;;
30948;SDS011;17637;51.984;21.208;2022-12-15T17:20:43;289.23;;;137.32;;
30948;SDS011;17637;51.984;21.208;2022-12-15T17:23:16;252.77;;;119.88;;
30948;SDS011;17637;51.984;21.208;2022-12-15T17:25:51;193.77;;;96.13;;
30948;SDS011;17637;51.984;21.208;2022-12-15T17:28:44;160.07;;;79.43;;
30948;SDS011;17637;51.984;21.208;2022-12-15T17:31:17;228.05;;;111.00;;
30948;SDS011;17637;51.984;21.208;2022-12-15T17:33:50;225.95;;;110.80;;
30948;SDS011;17637;51.984;21.208;2022-12-15T17:36:24;223.95;;;107.80;;
30948;SDS011;17637;51.984;21.208;2022-12-15T17:38:58;239.98;;;113.50;;
30948;SDS011;17637;51.984;21.208;2022-12-15T17:41:32;216.50;;;105.43;;
30948;SDS011;17637;51.984;21.208;2022-12-15T17:44:28;213.82;;;106.03;;
30948;SDS011;17637;51.984;21.208;2022-12-15T17:47:06;206.00;;;102.50;;
30948;SDS011;17637;51.984;21.208;2022-12-15T17:49:39;181.57;;;90.82;;
30948;SDS011;17637;51.984;21.208;2022-12-15T17:54:50;212.98;;;103.18;;
30948;SDS011;17637;51.984;21.208;2022-12-15T17:57:23;191.43;;;89.63;;
30948;SDS011;17637;51.984;21.208;2022-12-15T17:59:56;207.35;;;94.75;;
30948;SDS011;17637;51.984;21.208;2022-12-15T18:02:29;206.50;;;99.13;;
30948;SDS011;17637;51.984;21.208;2022-12-15T18:05:01;220.40;;;102.65;;
30948;SDS011;17637;51.984;21.208;2022-12-15T18:07:33;229.43;;;106.75;;
30948;SDS011;17637;51.984;21.208;2022-12-15T18:10:09;182.02;;;85.90;;
30948;SDS011;17637;51.984;21.208;2022-12-15T18:12:53;195.00;;;96.35;;
30948;SDS011;17637;51.984;21.208;2022-12-15T18:15:27;178.52;;;85.88;;
30948;SDS011;17637;51.984;21.208;2022-12-15T18:18:01;180.05;;;88.82;;
30948;SDS011;17637;51.984;21.208;2022-12-15T18:20:33;220.60;;;96.30;;
30948;SDS011;17637;51.984;21.208;2022-12-15T18:26:09;246.18;;;104.00;;
30948;SDS011;17637;51.984;21.208;2022-12-15T18:28:43;243.13;;;105.40;;